sensor_id;sensor_type;location;lat;lon;timestamp;P1;durP1;ratioP1;P2;durP2;ratioP2
35612;SDS011;22054;51.646;7.078;2023-09-19T00:00:45;7.63;;;7.32;;
35612;SDS011;22054;51.646;7.078;2023-09-19T00:03:14;7.60;;;7.30;;
35612;SDS011;22054;51.646;7.078;2023-09-19T00:05:41;7.45;;;7.15;;
35612;SDS011;22054;51.646;7.078;2023-09-19T00:08:09;7.65;;;7.35;;
35612;SDS011;22054;51.646;7.078;2023-09-19T00:10:35;7.85;;;7.55;;
35612;SDS011;22054;51.646;7.078;2023-09-19T00:13:04;8.00;;;7.70;;
35612;SDS011;22054;51.646;7.078;2023-09-19T00:15:30;7.90;;;7.60;;
35612;SDS011;22054;51.646;7.078;2023-09-19T00:18:04;8.00;;;7.70;;
35612;SDS011;22054;51.646;7.078;2023-09-19T00:20:37;7.80;;;7.50;;
35612;SDS011;22054;51.646;7.078;2023-09-19T00:23:04;7.82;;;7.53;;
35612;SDS011;22054;51.646;7.078;2023-09-19T00:25:30;7.63;;;7.32;;
35612;SDS011;22054;51.646;7.078;2023-09-19T00:27:57;7.60;;;7.30;;
35612;SDS011;22054;51.646;7.078;2023-09-19T00:30:23;8.20;;;7.90;;
35612;SDS011;22054;51.646;7.078;2023-09-19T00:32:49;8.10;;;7.80;;
35612;SDS011;22054;51.646;7.078;2023-09-19T00:35:20;7.68;;;7.38;;
35612;SDS011;22054;51.646;7.078;2023-09-19T00:40:15;7.68;;;7.38;;
35612;SDS011;22054;51.646;7.078;2023-09-19T00:42:44;7.72;;;7.43;;
35612;SDS011;22054;51.646;7.078;2023-09-19T00:45:12;7.63;;;7.32;;
35612;SDS011;22054;51.646;7.078;2023-09-19T00:50:14;7.70;;;7.40;;
35612;SDS011;22054;51.646;7.078;2023-09-19T00:52:46;7.80;;;7.50;;
35612;SDS011;22054;51.646;7.078;2023-09-19T00:55:15;7.68;;;7.38;;
35612;SDS011;22054;51.646;7.078;2023-09-19T00:57:43;8.32;;;8.02;;
35612;SDS011;22054;51.646;7.078;2023-09-19T01:00:09;7.50;;;7.20;;
35612;SDS011;22054;51.646;7.078;2023-09-19T01:02:40;7.40;;;7.10;;
35612;SDS011;22054;51.646;7.078;2023-09-19T01:05:10;7.93;;;7.63;;
35612;SDS011;22054;51.646;7.078;2023-09-19T01:07:37;7.60;;;7.30;;
35612;SDS011;22054;51.646;7.078;2023-09-19T01:10:06;7.85;;;7.55;;
35612;SDS011;22054;51.646;7.078;2023-09-19T01:22:25;7.80;;;7.50;;
35612;SDS011;22054;51.646;7.078;2023-09-19T01:28:30;7.97;;;7.68;;
35612;SDS011;22054;51.646;7.078;2023-09-19T01:31:01;7.80;;;7.50;;
35612;SDS011;22054;51.646;7.078;2023-09-19T01:33:53;7.95;;;7.65;;
35612;SDS011;22054;51.646;7.078;2023-09-19T01:36:25;7.75;;;7.45;;
35612;SDS011;22054;51.646;7.078;2023-09-19T01:39:05;7.95;;;7.65;;
35612;SDS011;22054;51.646;7.078;2023-09-19T01:41:39;8.25;;;7.95;;
35612;SDS011;22054;51.646;7.078;2023-09-19T01:44:31;7.68;;;7.38;;
35612;SDS011;22054;51.646;7.078;2023-09-19T01:47:18;7.90;;;7.60;;
35612;SDS011;22054;51.646;7.078;2023-09-19T01:52:28;7.72;;;7.43;;
35612;SDS011;22054;51.646;7.078;2023-09-19T01:55:01;8.10;;;7.80;;
35612;SDS011;22054;51.646;7.078;2023-09-19T02:00:56;7.88;;;7.57;;
35612;SDS011;22054;51.646;7.078;2023-09-19T02:03:25;7.72;;;7.43;;
35612;SDS011;22054;51.646;7.078;2023-09-19T02:05:54;8.13;;;7.82;;
35612;SDS011;22054;51.646;7.078;2023-09-19T02:08:20;8.07;;;7.78;;
35612;SDS011;22054;51.646;7.078;2023-09-19T02:10:50;8.15;;;7.85;;
35612;SDS011;22054;51.646;7.078;2023-09-19T02:13:21;8.10;;;7.80;;
35612;SDS011;22054;51.646;7.078;2023-09-19T02:15:53;8.40;;;8.10;;
35612;SDS011;22054;51.646;7.078;2023-09-19T02:18:19;8.30;;;8.00;;
35612;SDS011;22054;51.646;7.078;2023-09-19T02:20:45;8.20;;;7.90;;
35612;SDS011;22054;51.646;7.078;2023-09-19T02:23:11;8.35;;;8.05;;
35612;SDS011;22054;51.646;7.078;2023-09-19T02:25:38;8.40;;;8.10;;
35612;SDS011;22054;51.646;7.078;2023-09-19T02:28:05;8.20;;;7.90;;
35612;SDS011;22054;51.646;7.078;2023-09-19T02:30:32;8.15;;;7.85;;
35612;SDS011;22054;51.646;7.078;2023-09-19T02:32:58;8.32;;;8.02;;
35612;SDS011;22054;51.646;7.078;2023-09-19T02:35:27;7.97;;;7.68;;
35612;SDS011;22054;51.646;7.078;2023-09-19T02:37:53;8.00;;;7.70;;
35612;SDS011;22054;51.646;7.078;2023-09-19T02:40:19;8.23;;;7.93;;
35612;SDS011;22054;51.646;7.078;2023-09-19T02:42:48;7.68;;;7.38;;
35612;SDS011;22054;51.646;7.078;2023-09-19T02:45:18;8.20;;;7.90;;
35612;SDS011;22054;51.646;7.078;2023-09-19T02:47:45;8.15;;;7.85;;
35612;SDS011;22054;51.646;7.078;2023-09-19T02:50:11;8.18;;;7.88;;
35612;SDS011;22054;51.646;7.078;2023-09-19T02:52:43;8.10;;;7.80;;
35612;SDS011;22054;51.646;7.078;2023-09-19T02:55:14;8.10;;;7.80;;
35612;SDS011;22054;51.646;7.078;2023-09-19T02:57:48;8.07;;;7.77;;
35612;SDS011;22054;51.646;7.078;2023-09-19T03:00:16;8.18;;;7.88;;
35612;SDS011;22054;51.646;7.078;2023-09-19T03:02:53;8.77;;;8.48;;
35612;SDS011;22054;51.646;7.078;2023-09-19T03:05:20;8.02;;;7.72;;
35612;SDS011;22054;51.646;7.078;2023-09-19T03:07:48;8.52;;;8.23;;
35612;SDS011;22054;51.646;7.078;2023-09-19T03:10:16;7.97;;;7.68;;
35612;SDS011;22054;51.646;7.078;2023-09-19T03:12:46;8.10;;;7.80;;
35612;SDS011;22054;51.646;7.078;2023-09-19T03:15:12;8.15;;;7.85;;
35612;SDS011;22054;51.646;7.078;2023-09-19T03:17:42;8.13;;;7.82;;
35612;SDS011;22054;51.646;7.078;2023-09-19T03:20:10;8.10;;;7.80;;
35612;SDS011;22054;51.646;7.078;2023-09-19T03:22:38;8.13;;;7.82;;
35612;SDS011;22054;51.646;7.078;2023-09-19T03:25:05;8.35;;;8.05;;
35612;SDS011;22054;51.646;7.078;2023-09-19T03:27:36;8.70;;;8.40;;
35612;SDS011;22054;51.646;7.078;2023-09-19T03:30:02;8.70;;;8.40;;
35612;SDS011;22054;51.646;7.078;2023-09-19T03:32:37;7.95;;;7.65;;
35612;SDS011;22054;51.646;7.078;2023-09-19T03:35:09;8.10;;;7.80;;
35612;SDS011;22054;51.646;7.078;2023-09-19T03:37:38;8.55;;;8.25;;
35612;SDS011;22054;51.646;7.078;2023-09-19T03:40:08;8.05;;;7.75;;
35612;SDS011;22054;51.646;7.078;2023-09-19T03:42:38;7.93;;;7.63;;
35612;SDS011;22054;51.646;7.078;2023-09-19T03:45:05;8.70;;;8.40;;
35612;SDS011;22054;51.646;7.078;2023-09-19T03:47:36;8.13;;;7.82;;
35612;SDS011;22054;51.646;7.078;2023-09-19T03:50:02;8.27;;;7.97;;
35612;SDS011;22054;51.646;7.078;2023-09-19T03:52:31;8.50;;;8.20;;
35612;SDS011;22054;51.646;7.078;2023-09-19T03:54:57;8.75;;;8.45;;
35612;SDS011;22054;51.646;7.078;2023-09-19T03:57:22;8.77;;;8.48;;
35612;SDS011;22054;51.646;7.078;2023-09-19T03:59:48;8.32;;;8.02;;
35612;SDS011;22054;51.646;7.078;2023-09-19T04:02:14;8.20;;;7.90;;
35612;SDS011;22054;51.646;7.078;2023-09-19T04:04:47;8.80;;;8.50;;
35612;SDS011;22054;51.646;7.078;2023-09-19T04:07:14;8.20;;;7.90;;
35612;SDS011;22054;51.646;7.078;2023-09-19T04:09:40;7.22;;;6.93;;
35612;SDS011;22054;51.646;7.078;2023-09-19T04:12:05;7.22;;;6.93;;
35612;SDS011;22054;51.646;7.078;2023-09-19T04:14:36;7.80;;;7.50;;
35612;SDS011;22054;51.646;7.078;2023-09-19T04:17:01;7.75;;;7.45;;
35612;SDS011;22054;51.646;7.078;2023-09-19T04:19:30;7.97;;;7.68;;
35612;SDS011;22054;51.646;7.078;2023-09-19T04:21:56;7.75;;;7.45;;
35612;SDS011;22054;51.646;7.078;2023-09-19T04:24:22;7.53;;;7.22;;
35612;SDS011;22054;51.646;7.078;2023-09-19T04:26:47;7.97;;;7.68;;
35612;SDS011;22054;51.646;7.078;2023-09-19T04:29:13;7.50;;;7.20;;
35612;SDS011;22054;51.646;7.078;2023-09-19T04:31:39;7.40;;;7.10;;
35612;SDS011;22054;51.646;7.078;2023-09-19T04:34:08;7.40;;;7.10;;
35612;SDS011;22054;51.646;7.078;2023-09-19T04:36:40;7.65;;;7.35;;
35612;SDS011;22054;51.646;7.078;2023-09-19T04:39:06;7.70;;;7.40;;
35612;SDS011;22054;51.646;7.078;2023-09-19T04:41:32;7.72;;;7.43;;
35612;SDS011;22054;51.646;7.078;2023-09-19T04:43:59;7.50;;;7.20;;
35612;SDS011;22054;51.646;7.078;2023-09-19T04:46:25;7.65;;;7.35;;
35612;SDS011;22054;51.646;7.078;2023-09-19T04:48:51;7.38;;;7.07;;
35612;SDS011;22054;51.646;7.078;2023-09-19T04:51:16;7.85;;;7.55;;
35612;SDS011;22054;51.646;7.078;2023-09-19T04:53:43;8.07;;;7.78;;
35612;SDS011;22054;51.646;7.078;2023-09-19T04:56:09;7.57;;;7.28;;
35612;SDS011;22054;51.646;7.078;2023-09-19T04:58:36;7.57;;;7.28;;
35612;SDS011;22054;51.646;7.078;2023-09-19T05:01:01;7.38;;;7.07;;
35612;SDS011;22054;51.646;7.078;2023-09-19T05:03:28;7.70;;;7.40;;
35612;SDS011;22054;51.646;7.078;2023-09-19T05:05:54;7.80;;;7.50;;
35612;SDS011;22054;51.646;7.078;2023-09-19T05:08:19;7.72;;;7.43;;
35612;SDS011;22054;51.646;7.078;2023-09-19T05:10:47;7.88;;;7.57;;
35612;SDS011;22054;51.646;7.078;2023-09-19T05:13:14;8.02;;;7.72;;
35612;SDS011;22054;51.646;7.078;2023-09-19T05:15:43;7.85;;;7.55;;
35612;SDS011;22054;51.646;7.078;2023-09-19T05:18:09;7.90;;;7.60;;
35612;SDS011;22054;51.646;7.078;2023-09-19T05:20:35;7.60;;;7.30;;
35612;SDS011;22054;51.646;7.078;2023-09-19T05:23:03;7.10;;;6.80;;
35612;SDS011;22054;51.646;7.078;2023-09-19T05:28:02;7.18;;;6.88;;
35612;SDS011;22054;51.646;7.078;2023-09-19T05:30:30;6.80;;;6.50;;
35612;SDS011;22054;51.646;7.078;2023-09-19T05:32:57;7.47;;;7.18;;
35612;SDS011;22054;51.646;7.078;2023-09-19T05:35:23;7.30;;;7.00;;
35612;SDS011;22054;51.646;7.078;2023-09-19T05:37:51;7.00;;;6.70;;
35612;SDS011;22054;51.646;7.078;2023-09-19T05:40:18;6.72;;;6.45;;
35612;SDS011;22054;51.646;7.078;2023-09-19T05:42:44;7.00;;;6.70;;
35612;SDS011;22054;51.646;7.078;2023-09-19T05:45:11;7.18;;;6.88;;
35612;SDS011;22054;51.646;7.078;2023-09-19T05:47:39;6.47;;;6.28;;
35612;SDS011;22054;51.646;7.078;2023-09-19T05:50:06;7.07;;;6.78;;
35612;SDS011;22054;51.646;7.078;2023-09-19T05:52:34;7.03;;;6.72;;
35612;SDS011;22054;51.646;7.078;2023-09-19T05:55:06;6.70;;;6.40;;
35612;SDS011;22054;51.646;7.078;2023-09-19T05:57:33;6.68;;;6.38;;
35612;SDS011;22054;51.646;7.078;2023-09-19T05:59:59;6.53;;;6.30;;
35612;SDS011;22054;51.646;7.078;2023-09-19T06:02:25;7.00;;;6.70;;
35612;SDS011;22054;51.646;7.078;2023-09-19T06:04:54;7.80;;;7.50;;
35612;SDS011;22054;51.646;7.078;2023-09-19T06:07:21;7.15;;;6.85;;
35612;SDS011;22054;51.646;7.078;2023-09-19T06:09:51;7.20;;;6.90;;
35612;SDS011;22054;51.646;7.078;2023-09-19T06:12:18;6.72;;;6.43;;
35612;SDS011;22054;51.646;7.078;2023-09-19T06:14:44;6.40;;;6.20;;
35612;SDS011;22054;51.646;7.078;2023-09-19T06:17:11;6.80;;;6.50;;
35612;SDS011;22054;51.646;7.078;2023-09-19T06:19:40;6.80;;;6.50;;
35612;SDS011;22054;51.646;7.078;2023-09-19T06:22:06;7.03;;;6.72;;
35612;SDS011;22054;51.646;7.078;2023-09-19T06:24:32;7.00;;;6.70;;
35612;SDS011;22054;51.646;7.078;2023-09-19T06:26:59;6.88;;;6.57;;
35612;SDS011;22054;51.646;7.078;2023-09-19T06:29:26;7.28;;;6.97;;
35612;SDS011;22054;51.646;7.078;2023-09-19T06:31:51;6.70;;;6.40;;
35612;SDS011;22054;51.646;7.078;2023-09-19T06:34:17;6.70;;;6.40;;
35612;SDS011;22054;51.646;7.078;2023-09-19T06:36:43;7.00;;;6.70;;
35612;SDS011;22054;51.646;7.078;2023-09-19T06:39:10;6.70;;;6.40;;
35612;SDS011;22054;51.646;7.078;2023-09-19T06:41:36;7.35;;;7.05;;
35612;SDS011;22054;51.646;7.078;2023-09-19T06:44:04;6.85;;;6.55;;
35612;SDS011;22054;51.646;7.078;2023-09-19T06:46:30;7.13;;;6.82;;
35612;SDS011;22054;51.646;7.078;2023-09-19T06:49:00;7.03;;;6.72;;
35612;SDS011;22054;51.646;7.078;2023-09-19T06:51:29;6.80;;;6.50;;
35612;SDS011;22054;51.646;7.078;2023-09-19T06:53:55;7.00;;;6.70;;
35612;SDS011;22054;51.646;7.078;2023-09-19T06:56:21;7.07;;;6.78;;
35612;SDS011;22054;51.646;7.078;2023-09-19T06:58:49;7.20;;;6.90;;
35612;SDS011;22054;51.646;7.078;2023-09-19T07:01:15;6.97;;;6.68;;
35612;SDS011;22054;51.646;7.078;2023-09-19T07:03:41;6.97;;;6.68;;
35612;SDS011;22054;51.646;7.078;2023-09-19T07:06:10;6.90;;;6.60;;
35612;SDS011;22054;51.646;7.078;2023-09-19T07:08:36;6.70;;;6.40;;
35612;SDS011;22054;51.646;7.078;2023-09-19T07:11:03;6.60;;;6.30;;
35612;SDS011;22054;51.646;7.078;2023-09-19T07:13:31;5.88;;;5.68;;
35612;SDS011;22054;51.646;7.078;2023-09-19T07:15:58;6.20;;;6.00;;
35612;SDS011;22054;51.646;7.078;2023-09-19T07:18:24;6.00;;;5.80;;
35612;SDS011;22054;51.646;7.078;2023-09-19T07:20:50;6.65;;;6.35;;
35612;SDS011;22054;51.646;7.078;2023-09-19T07:23:17;5.40;;;5.20;;
35612;SDS011;22054;51.646;7.078;2023-09-19T07:25:47;5.13;;;4.93;;
35612;SDS011;22054;51.646;7.078;2023-09-19T07:28:13;5.68;;;5.47;;
35612;SDS011;22054;51.646;7.078;2023-09-19T07:30:40;5.70;;;5.50;;
35612;SDS011;22054;51.646;7.078;2023-09-19T07:33:09;5.85;;;5.65;;
35612;SDS011;22054;51.646;7.078;2023-09-19T07:35:38;5.90;;;5.70;;
35612;SDS011;22054;51.646;7.078;2023-09-19T07:38:05;5.47;;;5.28;;
35612;SDS011;22054;51.646;7.078;2023-09-19T07:40:31;6.25;;;6.05;;
35612;SDS011;22054;51.646;7.078;2023-09-19T07:42:57;5.75;;;5.55;;
35612;SDS011;22054;51.646;7.078;2023-09-19T07:45:30;6.70;;;6.40;;
35612;SDS011;22054;51.646;7.078;2023-09-19T07:47:56;6.80;;;6.50;;
35612;SDS011;22054;51.646;7.078;2023-09-19T07:50:22;6.50;;;6.30;;
35612;SDS011;22054;51.646;7.078;2023-09-19T07:52:49;7.10;;;6.80;;
35612;SDS011;22054;51.646;7.078;2023-09-19T07:55:16;6.35;;;6.15;;
35612;SDS011;22054;51.646;7.078;2023-09-19T07:57:43;6.70;;;6.40;;
35612;SDS011;22054;51.646;7.078;2023-09-19T08:00:09;6.70;;;6.40;;
35612;SDS011;22054;51.646;7.078;2023-09-19T08:02:36;6.95;;;6.65;;
35612;SDS011;22054;51.646;7.078;2023-09-19T08:05:06;7.18;;;6.88;;
35612;SDS011;22054;51.646;7.078;2023-09-19T08:07:37;6.90;;;6.60;;
35612;SDS011;22054;51.646;7.078;2023-09-19T08:10:07;6.30;;;6.10;;
35612;SDS011;22054;51.646;7.078;2023-09-19T08:12:40;6.18;;;5.97;;
35612;SDS011;22054;51.646;7.078;2023-09-19T08:15:15;6.03;;;5.82;;
35612;SDS011;22054;51.646;7.078;2023-09-19T08:17:46;6.63;;;6.35;;
35612;SDS011;22054;51.646;7.078;2023-09-19T08:20:14;5.57;;;5.38;;
35612;SDS011;22054;51.646;7.078;2023-09-19T08:22:50;5.93;;;5.72;;
35612;SDS011;22054;51.646;7.078;2023-09-19T08:25:20;5.65;;;5.45;;
35612;SDS011;22054;51.646;7.078;2023-09-19T08:27:48;6.10;;;5.90;;
35612;SDS011;22054;51.646;7.078;2023-09-19T08:30:15;6.03;;;5.82;;
35612;SDS011;22054;51.646;7.078;2023-09-19T08:32:43;5.78;;;5.57;;
35612;SDS011;22054;51.646;7.078;2023-09-19T08:35:11;6.05;;;5.85;;
35612;SDS011;22054;51.646;7.078;2023-09-19T08:37:37;6.07;;;5.88;;
35612;SDS011;22054;51.646;7.078;2023-09-19T08:40:04;5.30;;;5.10;;
35612;SDS011;22054;51.646;7.078;2023-09-19T08:42:46;6.05;;;5.85;;
35612;SDS011;22054;51.646;7.078;2023-09-19T08:45:19;6.13;;;5.93;;
35612;SDS011;22054;51.646;7.078;2023-09-19T08:48:11;5.70;;;5.50;;
35612;SDS011;22054;51.646;7.078;2023-09-19T08:51:02;5.63;;;5.43;;
35612;SDS011;22054;51.646;7.078;2023-09-19T08:56:16;5.50;;;5.30;;
35612;SDS011;22054;51.646;7.078;2023-09-19T09:04:09;5.50;;;5.30;;
35612;SDS011;22054;51.646;7.078;2023-09-19T09:06:38;5.40;;;5.20;;
35612;SDS011;22054;51.646;7.078;2023-09-19T09:09:05;5.90;;;5.70;;
35612;SDS011;22054;51.646;7.078;2023-09-19T09:11:32;5.78;;;5.57;;
35612;SDS011;22054;51.646;7.078;2023-09-19T09:13:58;6.03;;;5.82;;
35612;SDS011;22054;51.646;7.078;2023-09-19T09:16:25;5.90;;;5.70;;
35612;SDS011;22054;51.646;7.078;2023-09-19T09:18:50;5.90;;;5.70;;
35612;SDS011;22054;51.646;7.078;2023-09-19T09:21:19;5.80;;;5.60;;
35612;SDS011;22054;51.646;7.078;2023-09-19T09:23:46;5.22;;;5.03;;
35612;SDS011;22054;51.646;7.078;2023-09-19T09:26:14;5.00;;;4.80;;
35612;SDS011;22054;51.646;7.078;2023-09-19T09:28:44;5.30;;;5.10;;
35612;SDS011;22054;51.646;7.078;2023-09-19T09:31:22;5.72;;;5.53;;
35612;SDS011;22054;51.646;7.078;2023-09-19T09:33:53;4.93;;;4.72;;
35612;SDS011;22054;51.646;7.078;2023-09-19T09:36:39;4.80;;;4.60;;
35612;SDS011;22054;51.646;7.078;2023-09-19T09:39:06;5.85;;;5.65;;
35612;SDS011;22054;51.646;7.078;2023-09-19T09:41:49;6.40;;;6.20;;
35612;SDS011;22054;51.646;7.078;2023-09-19T09:44:16;6.32;;;6.13;;
35612;SDS011;22054;51.646;7.078;2023-09-19T09:46:44;6.20;;;6.00;;
35612;SDS011;22054;51.646;7.078;2023-09-19T09:49:23;6.38;;;6.18;;
35612;SDS011;22054;51.646;7.078;2023-09-19T09:52:01;6.32;;;6.13;;
35612;SDS011;22054;51.646;7.078;2023-09-19T09:54:59;6.20;;;6.00;;
35612;SDS011;22054;51.646;7.078;2023-09-19T09:57:30;6.10;;;5.90;;
35612;SDS011;22054;51.646;7.078;2023-09-19T09:59:56;6.80;;;6.50;;
35612;SDS011;22054;51.646;7.078;2023-09-19T10:02:39;5.80;;;5.60;;
35612;SDS011;22054;51.646;7.078;2023-09-19T10:05:12;5.63;;;5.43;;
35612;SDS011;22054;51.646;7.078;2023-09-19T10:07:49;6.90;;;6.60;;
35612;SDS011;22054;51.646;7.078;2023-09-19T10:10:34;6.60;;;6.32;;
35612;SDS011;22054;51.646;7.078;2023-09-19T10:13:14;7.10;;;6.80;;
35612;SDS011;22054;51.646;7.078;2023-09-19T10:15:43;6.60;;;6.30;;
35612;SDS011;22054;51.646;7.078;2023-09-19T10:18:25;6.10;;;5.90;;
35612;SDS011;22054;51.646;7.078;2023-09-19T10:20:54;6.10;;;5.90;;
35612;SDS011;22054;51.646;7.078;2023-09-19T10:23:22;6.95;;;6.65;;
35612;SDS011;22054;51.646;7.078;2023-09-19T10:25:48;6.40;;;6.20;;
35612;SDS011;22054;51.646;7.078;2023-09-19T10:28:16;5.80;;;5.60;;
35612;SDS011;22054;51.646;7.078;2023-09-19T10:30:47;5.57;;;5.38;;
35612;SDS011;22054;51.646;7.078;2023-09-19T10:33:18;5.30;;;5.10;;
35612;SDS011;22054;51.646;7.078;2023-09-19T10:35:52;6.10;;;5.90;;
35612;SDS011;22054;51.646;7.078;2023-09-19T10:38:25;6.70;;;6.40;;
35612;SDS011;22054;51.646;7.078;2023-09-19T10:40:54;6.72;;;6.43;;
35612;SDS011;22054;51.646;7.078;2023-09-19T10:43:29;6.40;;;6.20;;
35612;SDS011;22054;51.646;7.078;2023-09-19T10:46:01;6.13;;;5.93;;
35612;SDS011;22054;51.646;7.078;2023-09-19T10:48:38;6.38;;;6.18;;
35612;SDS011;22054;51.646;7.078;2023-09-19T10:51:12;6.30;;;6.10;;
35612;SDS011;22054;51.646;7.078;2023-09-19T10:56:17;6.45;;;6.22;;
35612;SDS011;22054;51.646;7.078;2023-09-19T11:01:53;5.80;;;5.60;;
35612;SDS011;22054;51.646;7.078;2023-09-19T11:04:32;5.35;;;5.15;;
35612;SDS011;22054;51.646;7.078;2023-09-19T11:14:56;6.55;;;6.30;;
35612;SDS011;22054;51.646;7.078;2023-09-19T11:17:30;7.00;;;6.70;;
35612;SDS011;22054;51.646;7.078;2023-09-19T11:30:35;6.32;;;6.13;;
35612;SDS011;22054;51.646;7.078;2023-09-19T11:36:07;0.00;;;0.00;;
35612;SDS011;22054;51.646;7.078;2023-09-19T11:43:51;0.00;;;0.00;;
35612;SDS011;22054;51.646;7.078;2023-09-19T11:46:29;0.00;;;0.00;;
35612;SDS011;22054;51.646;7.078;2023-09-19T11:49:04;0.00;;;0.00;;
35612;SDS011;22054;51.646;7.078;2023-09-19T11:51:41;0.00;;;0.00;;
35612;SDS011;22054;51.646;7.078;2023-09-19T11:54:10;0.00;;;0.00;;
35612;SDS011;22054;51.646;7.078;2023-09-19T11:56:42;0.00;;;0.00;;
35612;SDS011;22054;51.646;7.078;2023-09-19T11:59:10;0.00;;;0.00;;
35612;SDS011;22054;51.646;7.078;2023-09-19T12:01:37;0.00;;;0.00;;
35612;SDS011;22054;51.646;7.078;2023-09-19T12:04:08;0.00;;;0.00;;
35612;SDS011;22054;51.646;7.078;2023-09-19T12:06:37;0.00;;;0.00;;
35612;SDS011;22054;51.646;7.078;2023-09-19T12:09:12;0.00;;;0.00;;
35612;SDS011;22054;51.646;7.078;2023-09-19T12:11:42;0.00;;;0.00;;
35612;SDS011;22054;51.646;7.078;2023-09-19T12:14:11;0.00;;;0.00;;
35612;SDS011;22054;51.646;7.078;2023-09-19T12:16:57;0.00;;;0.00;;
35612;SDS011;22054;51.646;7.078;2023-09-19T12:19:25;2.15;;;2.08;;
35612;SDS011;22054;51.646;7.078;2023-09-19T12:21:55;0.85;;;0.47;;
35612;SDS011;22054;51.646;7.078;2023-09-19T12:24:23;6.60;;;6.30;;
35612;SDS011;22054;51.646;7.078;2023-09-19T12:26:59;6.90;;;6.60;;
35612;SDS011;22054;51.646;7.078;2023-09-19T12:29:30;6.80;;;6.50;;
35612;SDS011;22054;51.646;7.078;2023-09-19T12:31:59;7.37;;;7.07;;
35612;SDS011;22054;51.646;7.078;2023-09-19T12:34:29;7.20;;;6.90;;
35612;SDS011;22054;51.646;7.078;2023-09-19T12:37:06;7.15;;;6.85;;
35612;SDS011;22054;51.646;7.078;2023-09-19T12:39:47;7.25;;;6.95;;
35612;SDS011;22054;51.646;7.078;2023-09-19T12:42:22;6.40;;;6.20;;
35612;SDS011;22054;51.646;7.078;2023-09-19T12:44:53;8.23;;;7.93;;
35612;SDS011;22054;51.646;7.078;2023-09-19T12:47:22;6.80;;;6.50;;
35612;SDS011;22054;51.646;7.078;2023-09-19T12:52:39;6.90;;;6.60;;
35612;SDS011;22054;51.646;7.078;2023-09-19T12:57:55;6.20;;;6.00;;
35612;SDS011;22054;51.646;7.078;2023-09-19T13:00:34;7.22;;;6.93;;
35612;SDS011;22054;51.646;7.078;2023-09-19T13:03:18;6.90;;;6.60;;
35612;SDS011;22054;51.646;7.078;2023-09-19T13:05:57;7.00;;;6.70;;
35612;SDS011;22054;51.646;7.078;2023-09-19T13:11:07;6.85;;;6.55;;
35612;SDS011;22054;51.646;7.078;2023-09-19T13:13:43;7.50;;;7.20;;
35612;SDS011;22054;51.646;7.078;2023-09-19T13:16:20;7.18;;;6.88;;
35612;SDS011;22054;51.646;7.078;2023-09-19T13:18:53;6.75;;;6.45;;
35612;SDS011;22054;51.646;7.078;2023-09-19T13:21:27;6.57;;;6.30;;
35612;SDS011;22054;51.646;7.078;2023-09-19T13:26:52;7.00;;;6.70;;
35612;SDS011;22054;51.646;7.078;2023-09-19T13:29:19;7.10;;;6.80;;
35612;SDS011;22054;51.646;7.078;2023-09-19T13:31:46;7.20;;;6.90;;
35612;SDS011;22054;51.646;7.078;2023-09-19T13:34:17;7.07;;;6.78;;
35612;SDS011;22054;51.646;7.078;2023-09-19T13:36:44;6.70;;;6.40;;
35612;SDS011;22054;51.646;7.078;2023-09-19T13:39:17;6.40;;;6.20;;
35612;SDS011;22054;51.646;7.078;2023-09-19T13:41:47;7.65;;;7.35;;
35612;SDS011;22054;51.646;7.078;2023-09-19T13:44:13;7.85;;;7.55;;
35612;SDS011;22054;51.646;7.078;2023-09-19T13:46:39;6.68;;;6.38;;
35612;SDS011;22054;51.646;7.078;2023-09-19T13:49:08;7.03;;;6.72;;
35612;SDS011;22054;51.646;7.078;2023-09-19T13:51:34;6.47;;;6.28;;
35612;SDS011;22054;51.646;7.078;2023-09-19T13:54:00;7.30;;;7.00;;
35612;SDS011;22054;51.646;7.078;2023-09-19T13:56:26;6.00;;;5.80;;
35612;SDS011;22054;51.646;7.078;2023-09-19T13:58:56;6.80;;;6.50;;
35612;SDS011;22054;51.646;7.078;2023-09-19T14:01:22;7.10;;;6.80;;
35612;SDS011;22054;51.646;7.078;2023-09-19T14:03:48;6.88;;;6.57;;
35612;SDS011;22054;51.646;7.078;2023-09-19T14:06:16;7.50;;;7.20;;
35612;SDS011;22054;51.646;7.078;2023-09-19T14:08:43;7.28;;;6.97;;
35612;SDS011;22054;51.646;7.078;2023-09-19T14:11:12;6.25;;;6.05;;
35612;SDS011;22054;51.646;7.078;2023-09-19T14:13:42;6.10;;;5.90;;
35612;SDS011;22054;51.646;7.078;2023-09-19T14:16:13;6.40;;;6.20;;
35612;SDS011;22054;51.646;7.078;2023-09-19T14:18:40;6.20;;;6.00;;
35612;SDS011;22054;51.646;7.078;2023-09-19T14:21:07;6.28;;;6.07;;
35612;SDS011;22054;51.646;7.078;2023-09-19T14:23:36;6.10;;;5.90;;
35612;SDS011;22054;51.646;7.078;2023-09-19T14:26:06;6.47;;;6.25;;
35612;SDS011;22054;51.646;7.078;2023-09-19T14:28:32;6.53;;;6.28;;
35612;SDS011;22054;51.646;7.078;2023-09-19T14:31:03;6.60;;;6.35;;
35612;SDS011;22054;51.646;7.078;2023-09-19T14:36:07;6.05;;;5.85;;
35612;SDS011;22054;51.646;7.078;2023-09-19T14:38:35;6.20;;;6.00;;
35612;SDS011;22054;51.646;7.078;2023-09-19T14:41:04;6.30;;;6.10;;
35612;SDS011;22054;51.646;7.078;2023-09-19T14:43:31;6.10;;;5.90;;
35612;SDS011;22054;51.646;7.078;2023-09-19T14:46:02;5.93;;;5.72;;
35612;SDS011;22054;51.646;7.078;2023-09-19T14:48:35;5.70;;;5.50;;
35612;SDS011;22054;51.646;7.078;2023-09-19T14:53:34;5.43;;;5.22;;
35612;SDS011;22054;51.646;7.078;2023-09-19T14:56:02;5.37;;;5.17;;
35612;SDS011;22054;51.646;7.078;2023-09-19T14:58:32;5.70;;;5.50;;
35612;SDS011;22054;51.646;7.078;2023-09-19T15:01:17;5.85;;;5.65;;
35612;SDS011;22054;51.646;7.078;2023-09-19T15:03:43;6.68;;;6.38;;
35612;SDS011;22054;51.646;7.078;2023-09-19T15:06:09;6.30;;;6.10;;
35612;SDS011;22054;51.646;7.078;2023-09-19T15:08:43;6.20;;;6.00;;
35612;SDS011;22054;51.646;7.078;2023-09-19T15:11:19;5.90;;;5.70;;
35612;SDS011;22054;51.646;7.078;2023-09-19T15:13:46;6.30;;;6.10;;
35612;SDS011;22054;51.646;7.078;2023-09-19T15:16:13;6.65;;;6.35;;
35612;SDS011;22054;51.646;7.078;2023-09-19T15:18:40;6.18;;;5.97;;
35612;SDS011;22054;51.646;7.078;2023-09-19T15:21:07;6.40;;;6.20;;
35612;SDS011;22054;51.646;7.078;2023-09-19T15:23:35;5.90;;;5.70;;
35612;SDS011;22054;51.646;7.078;2023-09-19T15:26:13;5.78;;;5.57;;
35612;SDS011;22054;51.646;7.078;2023-09-19T15:28:42;5.68;;;5.47;;
35612;SDS011;22054;51.646;7.078;2023-09-19T15:31:08;6.10;;;5.90;;
35612;SDS011;22054;51.646;7.078;2023-09-19T15:33:36;5.55;;;5.35;;
35612;SDS011;22054;51.646;7.078;2023-09-19T15:36:06;5.63;;;5.43;;
35612;SDS011;22054;51.646;7.078;2023-09-19T15:41:37;5.90;;;5.70;;
35612;SDS011;22054;51.646;7.078;2023-09-19T15:44:11;5.72;;;5.53;;
35612;SDS011;22054;51.646;7.078;2023-09-19T15:46:43;5.90;;;5.70;;
35612;SDS011;22054;51.646;7.078;2023-09-19T15:49:10;5.22;;;5.03;;
35612;SDS011;22054;51.646;7.078;2023-09-19T15:51:37;5.70;;;5.50;;
35612;SDS011;22054;51.646;7.078;2023-09-19T15:54:10;5.90;;;5.70;;
35612;SDS011;22054;51.646;7.078;2023-09-19T15:56:43;6.35;;;6.15;;
35612;SDS011;22054;51.646;7.078;2023-09-19T15:59:11;6.07;;;5.88;;
35612;SDS011;22054;51.646;7.078;2023-09-19T16:01:38;5.63;;;5.43;;
35612;SDS011;22054;51.646;7.078;2023-09-19T16:04:10;5.70;;;5.50;;
35612;SDS011;22054;51.646;7.078;2023-09-19T16:06:37;5.78;;;5.57;;
35612;SDS011;22054;51.646;7.078;2023-09-19T16:09:04;5.90;;;5.70;;
35612;SDS011;22054;51.646;7.078;2023-09-19T16:11:34;5.90;;;5.70;;
35612;SDS011;22054;51.646;7.078;2023-09-19T16:14:03;6.10;;;5.90;;
35612;SDS011;22054;51.646;7.078;2023-09-19T16:16:31;5.90;;;5.70;;
35612;SDS011;22054;51.646;7.078;2023-09-19T16:19:00;5.88;;;5.68;;
35612;SDS011;22054;51.646;7.078;2023-09-19T16:21:28;5.90;;;5.70;;
35612;SDS011;22054;51.646;7.078;2023-09-19T16:23:55;5.63;;;5.43;;
35612;SDS011;22054;51.646;7.078;2023-09-19T16:26:23;6.05;;;5.85;;
35612;SDS011;22054;51.646;7.078;2023-09-19T16:28:50;6.32;;;6.13;;